sensor_id;sensor_type;location;lat;lon;timestamp;pressure;altitude;pressure_sealevel;temperature;humidity
56568;BME280;42456;49.956;20.004;2023-07-31T00:02:15;97902.52;;;15.67;81.11
56568;BME280;42456;49.956;20.004;2023-07-31T00:04:42;97905.13;;;15.65;80.70
56568;BME280;42456;49.956;20.004;2023-07-31T00:07:09;97908.13;;;15.63;81.16
56568;BME280;42456;49.956;20.004;2023-07-31T00:09:36;97905.39;;;15.61;80.86
56568;BME280;42456;49.956;20.004;2023-07-31T00:12:03;97909.09;;;15.59;80.93
56568;BME280;42456;49.956;20.004;2023-07-31T00:14:30;97908.53;;;15.58;81.52
56568;BME280;42456;49.956;20.004;2023-07-31T00:16:57;97906.33;;;15.56;81.52
56568;BME280;42456;49.956;20.004;2023-07-31T00:19:24;97908.02;;;15.55;81.63
56568;BME280;42456;49.956;20.004;2023-07-31T00:21:51;97908.15;;;15.53;81.70
56568;BME280;42456;49.956;20.004;2023-07-31T00:24:17;97906.27;;;15.50;81.79
56568;BME280;42456;49.956;20.004;2023-07-31T00:26:44;97905.77;;;15.48;82.14
56568;BME280;42456;49.956;20.004;2023-07-31T00:29:11;97907.85;;;15.47;82.27
56568;BME280;42456;49.956;20.004;2023-07-31T00:31:38;97914.27;;;15.46;82.37
56568;BME280;42456;49.956;20.004;2023-07-31T00:34:05;97912.10;;;15.45;82.48
56568;BME280;42456;49.956;20.004;2023-07-31T00:36:31;97914.88;;;15.46;82.62
56568;BME280;42456;49.956;20.004;2023-07-31T00:38:58;97917.98;;;15.45;82.73
56568;BME280;42456;49.956;20.004;2023-07-31T00:41:25;97914.16;;;15.44;82.53
56568;BME280;42456;49.956;20.004;2023-07-31T00:43:52;97918.97;;;15.44;83.01
56568;BME280;42456;49.956;20.004;2023-07-31T00:46:19;97924.77;;;15.45;83.09
56568;BME280;42456;49.956;20.004;2023-07-31T08:03:55;98105.73;;;20.49;68.58
56568;BME280;42456;49.956;20.004;2023-07-31T08:06:22;98102.52;;;20.48;68.66
56568;BME280;42456;49.956;20.004;2023-07-31T08:08:50;98102.89;;;20.51;68.60
56568;BME280;42456;49.956;20.004;2023-07-31T08:11:17;98105.15;;;20.53;68.46
56568;BME280;42456;49.956;20.004;2023-07-31T08:13:44;98105.43;;;20.57;68.42
56568;BME280;42456;49.956;20.004;2023-07-31T08:16:11;98107.84;;;20.60;68.18
56568;BME280;42456;49.956;20.004;2023-07-31T08:18:38;98112.64;;;20.67;68.16
56568;BME280;42456;49.956;20.004;2023-07-31T08:21:07;98111.81;;;20.77;67.97
56568;BME280;42456;49.956;20.004;2023-07-31T08:23:34;98109.89;;;20.84;67.50
56568;BME280;42456;49.956;20.004;2023-07-31T08:26:01;98111.29;;;20.87;67.67
56568;BME280;42456;49.956;20.004;2023-07-31T08:28:29;98112.20;;;20.91;67.88
56568;BME280;42456;49.956;20.004;2023-07-31T08:30:56;98110.47;;;20.95;67.81
56568;BME280;42456;49.956;20.004;2023-07-31T08:33:23;98110.52;;;21.00;67.90
56568;BME280;42456;49.956;20.004;2023-07-31T08:35:50;98111.36;;;21.04;67.64
56568;BME280;42456;49.956;20.004;2023-07-31T08:38:17;98112.31;;;21.13;67.66
56568;BME280;42456;49.956;20.004;2023-07-31T08:40:43;98117.27;;;21.21;67.18
56568;BME280;42456;49.956;20.004;2023-07-31T08:43:11;98117.84;;;21.28;66.73
56568;BME280;42456;49.956;20.004;2023-07-31T08:45:38;98121.69;;;21.33;66.40
56568;BME280;42456;49.956;20.004;2023-07-31T08:48:08;98121.36;;;21.36;65.92
56568;BME280;42456;49.956;20.004;2023-07-31T08:50:35;98124.15;;;21.39;66.00
56568;BME280;42456;49.956;20.004;2023-07-31T08:53:03;98118.88;;;21.44;65.92
56568;BME280;42456;49.956;20.004;2023-07-31T08:55:31;98117.13;;;21.48;65.58
56568;BME280;42456;49.956;20.004;2023-07-31T08:57:58;98115.14;;;21.51;65.72
56568;BME280;42456;49.956;20.004;2023-07-31T09:00:27;98112.45;;;21.54;65.26
56568;BME280;42456;49.956;20.004;2023-07-31T09:03:00;98111.02;;;21.57;65.20
56568;BME280;42456;49.956;20.004;2023-07-31T09:05:31;98113.38;;;21.56;65.09
56568;BME280;42456;49.956;20.004;2023-07-31T09:08:00;98114.50;;;21.62;65.21
56568;BME280;42456;49.956;20.004;2023-07-31T09:10:29;98114.21;;;21.68;64.69
56568;BME280;42456;49.956;20.004;2023-07-31T09:12:57;98113.31;;;21.74;64.68
56568;BME280;42456;49.956;20.004;2023-07-31T09:15:25;98110.29;;;21.79;64.38
56568;BME280;42456;49.956;20.004;2023-07-31T09:18:05;98111.90;;;21.83;64.37
56568;BME280;42456;49.956;20.004;2023-07-31T09:20:32;98108.44;;;21.85;64.50
56568;BME280;42456;49.956;20.004;2023-07-31T09:23:13;98110.23;;;21.86;64.26
56568;BME280;42456;49.956;20.004;2023-07-31T09:25:44;98106.73;;;21.84;63.92
56568;BME280;42456;49.956;20.004;2023-07-31T09:28:11;98105.23;;;21.85;63.89
56568;BME280;42456;49.956;20.004;2023-07-31T09:30:46;98104.07;;;21.91;64.13
56568;BME280;42456;49.956;20.004;2023-07-31T09:33:14;98102.94;;;22.03;64.07
56568;BME280;42456;49.956;20.004;2023-07-31T09:35:42;98098.27;;;22.21;63.83
56568;BME280;42456;49.956;20.004;2023-07-31T09:38:14;98096.88;;;22.46;64.11
56568;BME280;42456;49.956;20.004;2023-07-31T09:40:47;98095.62;;;22.72;63.84
56568;BME280;42456;49.956;20.004;2023-07-31T09:43:21;98092.81;;;22.93;63.11
56568;BME280;42456;49.956;20.004;2023-07-31T09:45:54;98092.09;;;23.04;62.66
56568;BME280;42456;49.956;20.004;2023-07-31T09:48:23;98096.92;;;23.11;62.25
56568;BME280;42456;49.956;20.004;2023-07-31T09:50:53;98089.99;;;23.13;61.95
56568;BME280;42456;49.956;20.004;2023-07-31T09:53:28;98089.92;;;23.18;62.03
56568;BME280;42456;49.956;20.004;2023-07-31T09:55:58;98086.73;;;23.21;62.15
56568;BME280;42456;49.956;20.004;2023-07-31T09:58:28;98084.61;;;23.21;61.74
56568;BME280;42456;49.956;20.004;2023-07-31T10:00:57;98079.77;;;23.19;61.12
56568;BME280;42456;49.956;20.004;2023-07-31T10:03:27;98076.90;;;23.18;61.03
56568;BME280;42456;49.956;20.004;2023-07-31T10:05:57;98074.38;;;23.14;60.95
56568;BME280;42456;49.956;20.004;2023-07-31T10:08:27;98076.41;;;23.15;61.56
56568;BME280;42456;49.956;20.004;2023-07-31T10:10:59;98071.10;;;23.17;61.56
56568;BME280;42456;49.956;20.004;2023-07-31T10:13:27;98073.77;;;23.19;61.55
56568;BME280;42456;49.956;20.004;2023-07-31T10:15:58;98072.89;;;23.19;60.95
56568;BME280;42456;49.956;20.004;2023-07-31T10:18:27;98074.13;;;23.19;60.13
56568;BME280;42456;49.956;20.004;2023-07-31T10:20:55;98070.77;;;23.20;59.99
56568;BME280;42456;49.956;20.004;2023-07-31T10:23:24;98072.02;;;23.19;59.85
56568;BME280;42456;49.956;20.004;2023-07-31T10:25:54;98066.52;;;23.20;59.75
56568;BME280;42456;49.956;20.004;2023-07-31T10:28:22;98063.55;;;23.20;59.42
56568;BME280;42456;49.956;20.004;2023-07-31T10:30:51;98057.85;;;23.23;59.29
56568;BME280;42456;49.956;20.004;2023-07-31T10:33:18;98050.67;;;23.27;59.05
56568;BME280;42456;49.956;20.004;2023-07-31T10:35:47;98052.23;;;23.33;58.80
56568;BME280;42456;49.956;20.004;2023-07-31T10:38:15;98050.73;;;23.38;58.76
56568;BME280;42456;49.956;20.004;2023-07-31T10:40:42;98044.98;;;23.39;57.93
56568;BME280;42456;49.956;20.004;2023-07-31T10:43:23;98046.83;;;23.41;58.00
56568;BME280;42456;49.956;20.004;2023-07-31T10:45:51;98042.16;;;23.43;57.68
56568;BME280;42456;49.956;20.004;2023-07-31T10:48:18;98033.97;;;23.45;57.54
56568;BME280;42456;49.956;20.004;2023-07-31T10:50:55;98029.92;;;23.48;57.47
56568;BME280;42456;49.956;20.004;2023-07-31T10:55:52;98032.45;;;23.61;56.90
56568;BME280;42456;49.956;20.004;2023-07-31T10:58:20;98031.23;;;23.67;56.74
56568;BME280;42456;49.956;20.004;2023-07-31T11:00:55;98029.14;;;23.69;55.88
56568;BME280;42456;49.956;20.004;2023-07-31T11:03:26;98029.48;;;23.68;55.37
56568;BME280;42456;49.956;20.004;2023-07-31T11:06:00;98019.89;;;23.69;55.29
56568;BME280;42456;49.956;20.004;2023-07-31T11:08:32;98020.81;;;23.74;55.51
56568;BME280;42456;49.956;20.004;2023-07-31T11:16:05;98007.16;;;23.99;55.12
56568;BME280;42456;49.956;20.004;2023-07-31T11:18:33;98003.22;;;24.09;54.63
56568;BME280;42456;49.956;20.004;2023-07-31T11:21:00;98002.23;;;24.15;54.49
56568;BME280;42456;49.956;20.004;2023-07-31T11:23:27;98001.54;;;24.21;54.50
56568;BME280;42456;49.956;20.004;2023-07-31T11:25:59;97996.94;;;24.27;54.21
56568;BME280;42456;49.956;20.004;2023-07-31T11:28:26;98001.98;;;24.33;53.98
56568;BME280;42456;49.956;20.004;2023-07-31T11:30:57;98004.50;;;24.33;53.35
56568;BME280;42456;49.956;20.004;2023-07-31T11:33:24;98004.43;;;24.33;53.40
56568;BME280;42456;49.956;20.004;2023-07-31T11:35:52;98006.58;;;24.38;53.77
56568;BME280;42456;49.956;20.004;2023-07-31T11:38:27;98005.18;;;24.45;53.48
56568;BME280;42456;49.956;20.004;2023-07-31T11:40:58;98005.55;;;24.46;52.54
56568;BME280;42456;49.956;20.004;2023-07-31T11:43:26;98006.67;;;24.41;51.95
56568;BME280;42456;49.956;20.004;2023-07-31T11:45:58;98010.63;;;24.37;51.97
56568;BME280;42456;49.956;20.004;2023-07-31T11:48:33;98002.33;;;24.42;52.36
56568;BME280;42456;49.956;20.004;2023-07-31T11:51:06;97998.16;;;24.50;52.39
56568;BME280;42456;49.956;20.004;2023-07-31T11:53:43;97996.71;;;24.58;51.41
56568;BME280;42456;49.956;20.004;2023-07-31T11:56:14;97992.64;;;24.61;51.45
56568;BME280;42456;49.956;20.004;2023-07-31T11:58:49;97994.81;;;24.67;52.16
56568;BME280;42456;49.956;20.004;2023-07-31T12:01:19;97987.00;;;24.75;51.32
56568;BME280;42456;49.956;20.004;2023-07-31T12:03:49;97986.88;;;24.86;51.13
56568;BME280;42456;49.956;20.004;2023-07-31T12:06:16;97983.49;;;24.93;50.84
56568;BME280;42456;49.956;20.004;2023-07-31T12:08:43;97977.39;;;25.01;50.83
56568;BME280;42456;49.956;20.004;2023-07-31T12:11:10;97977.83;;;25.09;50.43
56568;BME280;42456;49.956;20.004;2023-07-31T12:13:37;97977.64;;;25.13;50.21
56568;BME280;42456;49.956;20.004;2023-07-31T12:16:05;97973.35;;;25.15;49.90
56568;BME280;42456;49.956;20.004;2023-07-31T12:18:36;97969.48;;;25.16;49.68
56568;BME280;42456;49.956;20.004;2023-07-31T12:21:06;97967.81;;;25.19;49.37
56568;BME280;42456;49.956;20.004;2023-07-31T12:23:36;97965.26;;;25.24;49.78
56568;BME280;42456;49.956;20.004;2023-07-31T12:26:05;97963.38;;;25.30;49.74
56568;BME280;42456;49.956;20.004;2023-07-31T12:28:50;97960.57;;;25.36;48.69
56568;BME280;42456;49.956;20.004;2023-07-31T12:31:19;97958.41;;;25.40;49.05
56568;BME280;42456;49.956;20.004;2023-07-31T12:33:51;97960.06;;;25.46;49.25
56568;BME280;42456;49.956;20.004;2023-07-31T12:36:21;97957.02;;;25.54;49.41
56568;BME280;42456;49.956;20.004;2023-07-31T12:38:52;97953.75;;;25.66;49.18
56568;BME280;42456;49.956;20.004;2023-07-31T12:41:19;97953.12;;;25.74;48.83
56568;BME280;42456;49.956;20.004;2023-07-31T12:43:46;97953.68;;;25.74;48.53
56568;BME280;42456;49.956;20.004;2023-07-31T12:46:13;97954.95;;;25.71;48.23
56568;BME280;42456;49.956;20.004;2023-07-31T12:48:41;97949.39;;;25.62;47.58
56568;BME280;42456;49.956;20.004;2023-07-31T12:51:08;97942.67;;;25.49;47.53
56568;BME280;42456;49.956;20.004;2023-07-31T12:53:35;97941.59;;;25.33;47.46
56568;BME280;42456;49.956;20.004;2023-07-31T12:56:03;97941.98;;;25.20;47.16
56568;BME280;42456;49.956;20.004;2023-07-31T12:58:30;97938.35;;;25.13;47.52
56568;BME280;42456;49.956;20.004;2023-07-31T13:00:57;97938.59;;;25.13;48.10
56568;BME280;42456;49.956;20.004;2023-07-31T13:03:24;97933.43;;;25.14;47.68
56568;BME280;42456;49.956;20.004;2023-07-31T13:05:52;97926.09;;;25.15;47.04
56568;BME280;42456;49.956;20.004;2023-07-31T13:08:19;97928.91;;;25.15;47.18
56568;BME280;42456;49.956;20.004;2023-07-31T13:10:47;97926.55;;;25.19;47.17
56568;BME280;42456;49.956;20.004;2023-07-31T13:13:14;97924.95;;;25.20;45.81
56568;BME280;42456;49.956;20.004;2023-07-31T13:15:41;97918.42;;;25.19;46.21
56568;BME280;42456;49.956;20.004;2023-07-31T13:18:09;97920.23;;;25.22;46.37
56568;BME280;42456;49.956;20.004;2023-07-31T13:20:36;97917.59;;;25.21;45.55
56568;BME280;42456;49.956;20.004;2023-07-31T13:23:03;97917.95;;;25.20;45.51
56568;BME280;42456;49.956;20.004;2023-07-31T13:25:30;97910.85;;;25.20;45.94
56568;BME280;42456;49.956;20.004;2023-07-31T13:27:57;97910.98;;;25.22;46.09
56568;BME280;42456;49.956;20.004;2023-07-31T13:30:28;97909.80;;;25.24;46.02
56568;BME280;42456;49.956;20.004;2023-07-31T13:32:55;97911.48;;;25.29;45.64
56568;BME280;42456;49.956;20.004;2023-07-31T13:35:22;97908.29;;;25.31;45.65
56568;BME280;42456;49.956;20.004;2023-07-31T13:37:49;97903.20;;;25.30;45.45
56568;BME280;42456;49.956;20.004;2023-07-31T13:40:16;97902.43;;;25.29;45.44
56568;BME280;42456;49.956;20.004;2023-07-31T13:42:43;97906.69;;;25.29;46.10
56568;BME280;42456;49.956;20.004;2023-07-31T13:45:10;97902.77;;;25.28;45.83
56568;BME280;42456;49.956;20.004;2023-07-31T13:47:38;97899.83;;;25.24;46.13
56568;BME280;42456;49.956;20.004;2023-07-31T13:50:05;97900.79;;;25.23;46.36
56568;BME280;42456;49.956;20.004;2023-07-31T13:52:32;97897.23;;;25.24;46.48
56568;BME280;42456;49.956;20.004;2023-07-31T13:55:00;97897.42;;;25.25;46.84
56568;BME280;42456;49.956;20.004;2023-07-31T13:57:27;97897.06;;;25.30;46.28
56568;BME280;42456;49.956;20.004;2023-07-31T13:59:55;97892.48;;;25.34;46.00
56568;BME280;42456;49.956;20.004;2023-07-31T14:02:22;97895.38;;;25.35;45.36
56568;BME280;42456;49.956;20.004;2023-07-31T14:04:49;97893.20;;;25.34;45.41
56568;BME280;42456;49.956;20.004;2023-07-31T14:07:16;97892.39;;;25.35;45.74
56568;BME280;42456;49.956;20.004;2023-07-31T14:09:44;97893.50;;;25.38;45.99
56568;BME280;42456;49.956;20.004;2023-07-31T14:12:11;97894.31;;;25.40;45.63
56568;BME280;42456;49.956;20.004;2023-07-31T14:14:38;97893.23;;;25.39;45.35
56568;BME280;42456;49.956;20.004;2023-07-31T14:17:05;97893.75;;;25.37;45.07
56568;BME280;42456;49.956;20.004;2023-07-31T14:19:32;97889.67;;;25.36;45.32
56568;BME280;42456;49.956;20.004;2023-07-31T14:22:00;97889.20;;;25.37;45.43
56568;BME280;42456;49.956;20.004;2023-07-31T14:24:37;97886.23;;;25.36;45.23
56568;BME280;42456;49.956;20.004;2023-07-31T14:27:05;97889.86;;;25.32;44.49
56568;BME280;42456;49.956;20.004;2023-07-31T14:29:32;97885.20;;;25.27;44.24
56568;BME280;42456;49.956;20.004;2023-07-31T14:31:59;97876.40;;;25.23;44.19
56568;BME280;42456;49.956;20.004;2023-07-31T14:34:27;97874.64;;;25.22;44.72
56568;BME280;42456;49.956;20.004;2023-07-31T14:36:53;97874.91;;;25.20;44.61
56568;BME280;42456;49.956;20.004;2023-07-31T14:39:20;97872.08;;;25.18;44.86
56568;BME280;42456;49.956;20.004;2023-07-31T14:41:47;97868.70;;;25.18;44.76
56568;BME280;42456;49.956;20.004;2023-07-31T14:44:15;97862.90;;;25.17;44.65
56568;BME280;42456;49.956;20.004;2023-07-31T14:46:41;97863.70;;;25.16;44.56
56568;BME280;42456;49.956;20.004;2023-07-31T14:49:09;97864.15;;;25.14;44.80
56568;BME280;42456;49.956;20.004;2023-07-31T14:51:36;97865.78;;;25.15;44.98
56568;BME280;42456;49.956;20.004;2023-07-31T14:54:03;97862.48;;;25.15;44.49
56568;BME280;42456;49.956;20.004;2023-07-31T14:56:30;97862.31;;;25.15;44.56
56568;BME280;42456;49.956;20.004;2023-07-31T14:58:57;97857.11;;;25.13;44.35
56568;BME280;42456;49.956;20.004;2023-07-31T15:01:24;97853.13;;;25.09;44.37
56568;BME280;42456;49.956;20.004;2023-07-31T15:03:51;97848.83;;;25.08;44.75
56568;BME280;42456;49.956;20.004;2023-07-31T15:06:18;97849.29;;;25.08;44.67
56568;BME280;42456;49.956;20.004;2023-07-31T15:08:44;97846.48;;;25.07;44.81
56568;BME280;42456;49.956;20.004;2023-07-31T15:11:11;97848.45;;;25.08;44.98
56568;BME280;42456;49.956;20.004;2023-07-31T15:13:38;97848.45;;;25.08;44.97
56568;BME280;42456;49.956;20.004;2023-07-31T15:16:05;97851.42;;;25.08;45.05
56568;BME280;42456;49.956;20.004;2023-07-31T15:18:32;97846.57;;;25.10;45.14
56568;BME280;42456;49.956;20.004;2023-07-31T15:20:59;97845.07;;;25.10;45.30
56568;BME280;42456;49.956;20.004;2023-07-31T15:23:25;97845.38;;;25.10;44.96
56568;BME280;42456;49.956;20.004;2023-07-31T15:25:53;97842.55;;;25.10;45.03
56568;BME280;42456;49.956;20.004;2023-07-31T15:28:20;97844.64;;;25.09;45.03
56568;BME280;42456;49.956;20.004;2023-07-31T15:30:46;97849.23;;;25.02;44.85
56568;BME280;42456;49.956;20.004;2023-07-31T15:33:15;97839.04;;;24.98;44.85
56568;BME280;42456;49.956;20.004;2023-07-31T15:35:42;97840.75;;;24.95;45.28
56568;BME280;42456;49.956;20.004;2023-07-31T15:38:10;97838.86;;;24.93;45.21
56568;BME280;42456;49.956;20.004;2023-07-31T15:40:38;97833.91;;;24.87;44.80
56568;BME280;42456;49.956;20.004;2023-07-31T15:43:05;97834.98;;;24.82;45.20
56568;BME280;42456;49.956;20.004;2023-07-31T15:45:32;97836.41;;;24.81;45.32
56568;BME280;42456;49.956;20.004;2023-07-31T15:47:59;97838.89;;;24.80;45.50
56568;BME280;42456;49.956;20.004;2023-07-31T15:50:26;97833.73;;;24.78;45.70
56568;BME280;42456;49.956;20.004;2023-07-31T15:52:53;97829.47;;;24.74;45.76
56568;BME280;42456;49.956;20.004;2023-07-31T15:55:20;97826.09;;;24.68;45.60
56568;BME280;42456;49.956;20.004;2023-07-31T15:57:48;97825.11;;;24.62;45.61
56568;BME280;42456;49.956;20.004;2023-07-31T16:00:15;97820.14;;;24.57;46.06
56568;BME280;42456;49.956;20.004;2023-07-31T16:02:42;97820.40;;;24.53;46.16
56568;BME280;42456;49.956;20.004;2023-07-31T16:05:09;97824.63;;;24.47;46.40
56568;BME280;42456;49.956;20.004;2023-07-31T16:07:36;97821.08;;;24.41;46.68
56568;BME280;42456;49.956;20.004;2023-07-31T16:10:04;97819.61;;;24.34;46.60
56568;BME280;42456;49.956;20.004;2023-07-31T16:12:32;97817.30;;;24.28;46.91
56568;BME280;42456;49.956;20.004;2023-07-31T16:14:59;97817.00;;;24.25;47.15
56568;BME280;42456;49.956;20.004;2023-07-31T16:17:25;97817.15;;;24.19;47.37
56568;BME280;42456;49.956;20.004;2023-07-31T16:19:52;97816.86;;;24.14;47.74
56568;BME280;42456;49.956;20.004;2023-07-31T16:22:19;97817.27;;;24.10;48.04
56568;BME280;42456;49.956;20.004;2023-07-31T16:24:46;97819.58;;;24.06;48.46
56568;BME280;42456;49.956;20.004;2023-07-31T16:27:13;97819.84;;;24.01;48.42
56568;BME280;42456;49.956;20.004;2023-07-31T16:29:40;97815.86;;;23.97;48.55
56568;BME280;42456;49.956;20.004;2023-07-31T16:32:07;97819.20;;;23.94;48.42
56568;BME280;42456;49.956;20.004;2023-07-31T16:34:37;97818.67;;;23.90;48.56
56568;BME280;42456;49.956;20.004;2023-07-31T16:37:04;97818.28;;;23.86;48.80
56568;BME280;42456;49.956;20.004;2023-07-31T16:39:31;97816.95;;;23.82;49.82
56568;BME280;42456;49.956;20.004;2023-07-31T16:42:02;97815.31;;;23.78;50.86
56568;BME280;42456;49.956;20.004;2023-07-31T16:44:29;97813.50;;;23.72;50.94
56568;BME280;42456;49.956;20.004;2023-07-31T16:46:56;97816.01;;;23.65;50.47
56568;BME280;42456;49.956;20.004;2023-07-31T16:49:23;97813.25;;;23.58;50.20
56568;BME280;42456;49.956;20.004;2023-07-31T16:51:51;97810.11;;;23.51;50.39
56568;BME280;42456;49.956;20.004;2023-07-31T16:54:18;97809.90;;;23.46;50.38
56568;BME280;42456;49.956;20.004;2023-07-31T16:56:45;97808.96;;;23.43;50.67
56568;BME280;42456;49.956;20.004;2023-07-31T16:59:29;97809.84;;;23.38;50.96
56568;BME280;42456;49.956;20.004;2023-07-31T17:01:55;97811.60;;;23.33;51.52
56568;BME280;42456;49.956;20.004;2023-07-31T17:04:26;97812.80;;;23.28;52.09
56568;BME280;42456;49.956;20.004;2023-07-31T17:06:54;97813.77;;;23.22;52.03
56568;BME280;42456;49.956;20.004;2023-07-31T17:09:21;97806.96;;;23.16;52.41
56568;BME280;42456;49.956;20.004;2023-07-31T17:11:48;97811.35;;;23.13;52.98
56568;BME280;42456;49.956;20.004;2023-07-31T17:14:15;97806.27;;;23.08;53.59
56568;BME280;42456;49.956;20.004;2023-07-31T17:16:42;97806.55;;;23.06;53.88
56568;BME280;42456;49.956;20.004;2023-07-31T17:19:09;97804.52;;;23.02;54.29
56568;BME280;42456;49.956;20.004;2023-07-31T17:21:36;97807.54;;;23.00;54.48
56568;BME280;42456;49.956;20.004;2023-07-31T17:24:04;97806.91;;;22.96;54.69
56568;BME280;42456;49.956;20.004;2023-07-31T17:26:31;97808.06;;;22.92;55.42
56568;BME280;42456;49.956;20.004;2023-07-31T17:28:57;97807.06;;;22.88;55.57
56568;BME280;42456;49.956;20.004;2023-07-31T17:31:27;97808.32;;;22.84;56.24
56568;BME280;42456;49.956;20.004;2023-07-31T17:33:54;97815.05;;;22.79;56.80
56568;BME280;42456;49.956;20.004;2023-07-31T17:36:21;97815.65;;;22.72;57.00
56568;BME280;42456;49.956;20.004;2023-07-31T17:38:48;97820.32;;;22.66;56.93
56568;BME280;42456;49.956;20.004;2023-07-31T17:41:15;97822.10;;;22.58;56.56
56568;BME280;42456;49.956;20.004;2023-07-31T17:43:41;97820.58;;;22.50;56.37
56568;BME280;42456;49.956;20.004;2023-07-31T17:46:08;97820.04;;;22.44;56.51
56568;BME280;42456;49.956;20.004;2023-07-31T17:48:35;97822.65;;;22.38;56.50
56568;BME280;42456;49.956;20.004;2023-07-31T17:51:02;97826.57;;;22.32;57.44
56568;BME280;42456;49.956;20.004;2023-07-31T17:53:29;97828.19;;;22.23;57.61
56568;BME280;42456;49.956;20.004;2023-07-31T17:55:56;97828.48;;;22.16;57.71
56568;BME280;42456;49.956;20.004;2023-07-31T17:58:23;97826.33;;;22.08;57.91
56568;BME280;42456;49.956;20.004;2023-07-31T18:00:51;97831.39;;;22.00;58.21
56568;BME280;42456;49.956;20.004;2023-07-31T18:03:18;97829.48;;;21.91;58.07
56568;BME280;42456;49.956;20.004;2023-07-31T18:05:45;97832.11;;;21.83;58.17
56568;BME280;42456;49.956;20.004;2023-07-31T18:08:12;97839.89;;;21.72;58.64
56568;BME280;42456;49.956;20.004;2023-07-31T18:10:45;97837.39;;;21.61;58.86
56568;BME280;42456;49.956;20.004;2023-07-31T18:13:13;97838.00;;;21.49;59.13
56568;BME280;42456;49.956;20.004;2023-07-31T18:15:47;97839.49;;;21.37;59.49
56568;BME280;42456;49.956;20.004;2023-07-31T18:18:14;97838.98;;;21.22;59.85
56568;BME280;42456;49.956;20.004;2023-07-31T18:20:41;97842.33;;;21.09;60.35
56568;BME280;42456;49.956;20.004;2023-07-31T18:23:08;97844.09;;;20.96;60.86
56568;BME280;42456;49.956;20.004;2023-07-31T18:25:35;97846.16;;;20.84;61.20
56568;BME280;42456;49.956;20.004;2023-07-31T18:28:02;97842.91;;;20.72;61.63
56568;BME280;42456;49.956;20.004;2023-07-31T18:30:30;97841.56;;;20.59;61.93
56568;BME280;42456;49.956;20.004;2023-07-31T18:32:57;97845.02;;;20.47;62.33
56568;BME280;42456;49.956;20.004;2023-07-31T18:35:24;97843.55;;;20.36;62.66
56568;BME280;42456;49.956;20.004;2023-07-31T18:37:50;97842.71;;;20.23;62.97
56568;BME280;42456;49.956;20.004;2023-07-31T18:40:17;97841.39;;;20.12;63.40
56568;BME280;42456;49.956;20.004;2023-07-31T18:42:45;97839.35;;;19.99;63.55
56568;BME280;42456;49.956;20.004;2023-07-31T18:45:12;97839.98;;;19.87;63.75
56568;BME280;42456;49.956;20.004;2023-07-31T18:47:39;97842.70;;;19.76;64.05
56568;BME280;42456;49.956;20.004;2023-07-31T18:50:07;97847.91;;;19.64;64.35
56568;BME280;42456;49.956;20.004;2023-07-31T18:52:34;97845.87;;;19.52;64.89
56568;BME280;42456;49.956;20.004;2023-07-31T18:55:01;97851.52;;;19.42;65.13
56568;BME280;42456;49.956;20.004;2023-07-31T18:57:28;97854.92;;;19.31;65.08
56568;BME280;42456;49.956;20.004;2023-07-31T18:59:54;97856.25;;;19.22;65.41
56568;BME280;42456;49.956;20.004;2023-07-31T19:02:21;97853.48;;;19.12;65.66
56568;BME280;42456;49.956;20.004;2023-07-31T19:04:48;97851.95;;;19.02;66.01
56568;BME280;42456;49.956;20.004;2023-07-31T19:07:15;97853.52;;;18.96;66.51
56568;BME280;42456;49.956;20.004;2023-07-31T19:09:43;97852.84;;;18.90;66.79
56568;BME280;42456;49.956;20.004;2023-07-31T19:12:10;97849.74;;;18.79;67.00
56568;BME280;42456;49.956;20.004;2023-07-31T19:14:38;97853.18;;;18.69;66.66
56568;BME280;42456;49.956;20.004;2023-07-31T19:17:06;97856.16;;;18.58;67.22
56568;BME280;42456;49.956;20.004;2023-07-31T19:19:33;97860.21;;;18.47;67.72
56568;BME280;42456;49.956;20.004;2023-07-31T19:22:00;97863.84;;;18.36;67.64
56568;BME280;42456;49.956;20.004;2023-07-31T19:24:26;97859.64;;;18.28;68.24
56568;BME280;42456;49.956;20.004;2023-07-31T19:27:03;97866.09;;;18.18;68.39
56568;BME280;42456;49.956;20.004;2023-07-31T19:29:30;97868.17;;;18.08;68.54
56568;BME280;42456;49.956;20.004;2023-07-31T19:31:56;97867.77;;;17.99;68.78
56568;BME280;42456;49.956;20.004;2023-07-31T19:34:23;97875.01;;;17.95;68.99
56568;BME280;42456;49.956;20.004;2023-07-31T19:36:51;97879.96;;;17.90;69.30
56568;BME280;42456;49.956;20.004;2023-07-31T19:39:19;97885.02;;;17.87;69.70
56568;BME280;42456;49.956;20.004;2023-07-31T19:41:46;97886.55;;;17.81;69.62
56568;BME280;42456;49.956;20.004;2023-07-31T19:44:13;97886.52;;;17.74;69.87
56568;BME280;42456;49.956;20.004;2023-07-31T19:46:40;97884.95;;;17.69;70.07
56568;BME280;42456;49.956;20.004;2023-07-31T19:49:08;97881.52;;;17.61;70.02
56568;BME280;42456;49.956;20.004;2023-07-31T19:51:34;97884.05;;;17.54;70.24
56568;BME280;42456;49.956;20.004;2023-07-31T19:54:01;97880.46;;;17.48;70.47
56568;BME280;42456;49.956;20.004;2023-07-31T19:56:28;97873.95;;;17.41;70.69
56568;BME280;42456;49.956;20.004;2023-07-31T19:58:56;97873.61;;;17.35;70.93
56568;BME280;42456;49.956;20.004;2023-07-31T20:01:22;97872.81;;;17.29;70.91
56568;BME280;42456;49.956;20.004;2023-07-31T20:03:52;97867.29;;;17.24;71.12
56568;BME280;42456;49.956;20.004;2023-07-31T20:06:20;97871.67;;;17.18;71.29
56568;BME280;42456;49.956;20.004;2023-07-31T20:08:47;97872.34;;;17.10;71.40
56568;BME280;42456;49.956;20.004;2023-07-31T20:11:13;97869.28;;;17.05;71.53
56568;BME280;42456;49.956;20.004;2023-07-31T20:13:40;97864.75;;;16.99;71.72
56568;BME280;42456;49.956;20.004;2023-07-31T20:16:08;97860.38;;;16.93;71.87
56568;BME280;42456;49.956;20.004;2023-07-31T20:18:35;97858.48;;;16.90;72.10